Time;durP1;ratioP1;P1;durP2;ratioP2;P2;SDS_P1;SDS_P2;PMS_P1;PMS_P2;Temp;Humidity;BMP_temperature;BMP_pressure;BME280_temperature;BME280_humidity;BME280_pressure;Samples;Min_cycle;Max_cycle;Signal;HPM_P1;HPM_P2
2022/09/11 00:02:05;;;;;;;4.25;1.50;;;;;;;13.98;97.04;97421.16;4867950;29;20055;-62
2022/09/11 00:04:32;;;;;;;2.97;1.10;;;;;;;13.90;98.25;97425.25;4864969;29;20442;-63
2022/09/11 00:06:58;;;;;;;3.72;1.38;;;;;;;13.93;97.72;97426.63;4871304;29;20568;-62
2022/09/11 00:09:25;;;;;;;3.15;1.30;;;;;;;14.02;96.47;97427.69;4875793;29;20333;-63
2022/09/11 00:11:52;;;;;;;2.83;1.00;;;;;;;14.05;95.72;97422.50;4888162;29;20075;-63
2022/09/11 00:14:18;;;;;;;2.67;1.15;;;;;;;14.04;95.37;97417.34;4871229;29;20052;-63
2022/09/11 00:16:45;;;;;;;4.35;1.30;;;;;;;14.12;95.15;97419.50;4876672;29;20136;-62
2022/09/11 00:19:16;;;;;;;5.90;1.48;;;;;;;14.03;95.92;97415.72;4876732;29;20066;-63
2022/09/11 00:21:42;;;;;;;3.17;1.30;;;;;;;13.87;96.91;97421.19;4871520;29;20204;-63
2022/09/11 00:24:09;;;;;;;3.70;0.95;;;;;;;13.94;96.23;97422.81;4868843;29;20505;-62
2022/09/11 00:26:36;;;;;;;3.40;1.45;;;;;;;13.86;97.18;97418.72;4869098;29;20437;-63
2022/09/11 00:29:03;;;;;;;5.18;1.60;;;;;;;13.83;98.25;97416.53;4856833;29;20565;-63
2022/09/11 00:31:31;;;;;;;2.88;1.50;;;;;;;13.88;97.21;97425.53;4871734;29;20128;-62
2022/09/11 00:33:57;;;;;;;3.63;1.20;;;;;;;13.86;98.12;97418.72;4855951;29;20053;-61
2022/09/11 00:36:30;;;;;;;4.65;1.85;;;;;;;13.90;97.58;97415.19;4872196;29;20124;-62
2022/09/11 00:38:57;;;;;;;3.40;1.50;;;;;;;13.87;98.01;97414.91;4855730;29;20046;-62
2022/09/11 00:41:33;;;;;;;3.67;1.48;;;;;;;13.82;98.23;97410.28;4855392;29;20120;-62
2022/09/11 00:44:04;;;;;;;3.78;1.58;;;;;;;13.93;98.07;97415.72;4870819;29;20355;-61
2022/09/11 00:46:39;;;;;;;2.13;1.25;;;;;;;14.02;96.81;97417.63;4852066;29;20144;-61
2022/09/11 00:49:31;;;;;;;3.55;1.60;;;;;;;14.00;97.74;97424.41;4854727;29;20165;-62
2022/09/11 00:52:11;;;;;;;4.68;1.60;;;;;;;14.01;97.09;97415.19;4853417;29;20141;-62
2022/09/11 00:55:06;;;;;;;6.30;1.60;;;;;;;13.97;97.96;97419.53;4865777;29;20045;-62
2022/09/11 00:57:41;;;;;;;5.53;1.73;;;;;;;14.02;97.94;97414.09;4865551;29;20358;-62
2022/09/11 01:00:08;;;;;;;5.55;2.10;;;;;;;14.00;98.27;97411.63;4853506;29;20069;-61
2022/09/11 01:02:37;;;;;;;4.10;1.95;;;;;;;13.96;98.54;97420.63;4854208;29;20257;-61
2022/09/11 01:05:04;;;;;;;6.45;2.05;;;;;;;13.98;99.86;97415.72;4880925;29;20075;-63
2022/09/11 01:07:32;;;;;;;3.80;1.67;;;;;;;14.01;98.86;97415.97;4879284;29;20044;-62
2022/09/11 01:09:59;;;;;;;5.90;1.80;;;;;;;13.97;99.51;97417.63;4866636;29;20042;-62
2022/09/11 01:12:52;;;;;;;3.60;2.20;;;;;;;13.99;99.38;97417.34;4854746;29;20123;-62
2022/09/11 01:15:40;;;;;;;4.72;2.20;;;;;;;13.92;100.00;97417.63;4888983;29;20044;-62
2022/09/11 01:18:40;;;;;;;4.53;1.92;;;;;;;13.94;100.00;97409.19;4866099;29;20190;-62
2022/09/11 01:21:10;;;;;;;4.72;1.98;;;;;;;14.02;99.48;97411.38;4859253;29;20045;-63
2022/09/11 01:23:44;;;;;;;5.50;2.60;;;;;;;13.95;100.00;97411.66;4870438;29;20689;-62
2022/09/11 01:26:31;;;;;;;5.20;2.42;;;;;;;13.99;99.55;97414.63;4869485;29;20053;-62
2022/09/11 01:29:04;;;;;;;5.18;2.38;;;;;;;13.94;100.00;97415.47;4857353;29;20405;-63
2022/09/11 01:31:56;;;;;;;4.70;2.55;;;;;;;13.88;100.00;97422.81;4855059;29;20049;-61
2022/09/11 01:34:41;;;;;;;5.28;2.10;;;;;;;13.85;100.00;97409.75;4870575;29;20296;-62
2022/09/11 01:37:16;;;;;;;5.40;2.70;;;;;;;13.76;100.00;97420.38;4881972;29;20053;-62
2022/09/11 01:39:53;;;;;;;5.45;2.60;;;;;;;13.86;100.00;97424.16;4891237;29;20049;-62
2022/09/11 01:42:23;;;;;;;7.20;3.45;;;;;;;13.88;100.00;97421.97;4884994;29;20045;-61
2022/09/11 01:44:53;;;;;;;7.40;3.00;;;;;;;13.91;100.00;97413.28;4866101;29;20079;-62
2022/09/11 01:47:21;;;;;;;6.32;2.90;;;;;;;13.88;100.00;97414.66;4859405;29;20075;-63
2022/09/11 01:50:02;;;;;;;5.03;3.38;;;;;;;13.85;100.00;97419.78;4866551;29;20514;-62
2022/09/11 01:52:35;;;;;;;6.68;3.35;;;;;;;13.87;100.00;97417.63;4859833;29;20055;-62
2022/09/11 01:55:18;;;;;;;5.70;3.08;;;;;;;13.79;100.00;97419.00;4869637;29;20132;-62
2022/09/11 01:57:51;;;;;;;6.38;3.25;;;;;;;13.72;100.00;97423.88;4854336;29;20053;-63
2022/09/11 02:00:18;;;;;;;8.15;3.95;;;;;;;13.65;100.00;97411.34;4855104;29;20037;-62
2022/09/11 02:03:23;;;;;;;10.20;4.47;;;;;;;13.63;100.00;97410.81;4863136;29;20564;-61
2022/09/11 02:05:58;;;;;;;8.57;3.78;;;;;;;13.64;100.00;97401.56;4859285;29;20059;-62
2022/09/11 02:08:45;;;;;;;7.00;4.03;;;;;;;13.59;100.00;97414.34;4875833;29;20072;-62
2022/09/11 02:11:17;;;;;;;6.53;4.18;;;;;;;13.62;100.00;97413.81;4871634;29;20060;-62
2022/09/11 02:14:02;;;;;;;5.68;3.72;;;;;;;13.60;100.00;97418.72;4875369;29;20111;-62
2022/09/11 02:16:50;;;;;;;8.35;3.85;;;;;;;13.62;100.00;97421.97;4852884;29;20050;-63
2022/09/11 02:19:25;;;;;;;4.30;2.85;;;;;;;13.62;100.00;97425.53;4871425;29;20124;-62
2022/09/11 02:21:52;;;;;;;6.05;3.25;;;;;;;13.65;100.00;97429.59;4869844;29;20679;-62
2022/09/11 02:24:21;;;;;;;8.45;3.40;;;;;;;13.64;100.00;97433.41;4854956;29;20072;-62
2022/09/11 02:26:57;;;;;;;5.97;3.42;;;;;;;13.64;100.00;97434.22;4873319;29;20068;-61
2022/09/11 02:29:23;;;;;;;10.48;2.97;;;;;;;13.67;100.00;97432.84;4855416;29;20124;-62
2022/09/11 02:31:51;;;;;;;6.55;4.32;;;;;;;13.71;100.00;97438.59;4870877;29;20075;-62
2022/09/11 02:34:25;;;;;;;5.65;3.40;;;;;;;13.71;100.00;97441.31;4865925;29;20120;-62
2022/09/11 02:37:22;;;;;;;5.53;3.40;;;;;;;13.72;100.00;97434.78;4856430;29;20052;-62
2022/09/11 02:40:15;;;;;;;8.45;4.03;;;;;;;13.73;100.00;97442.66;4882052;29;20162;-63
2022/09/11 02:43:05;;;;;;;6.93;3.90;;;;;;;13.75;100.00;97447.84;4875992;29;20125;-62
2022/09/11 02:45:53;;;;;;;5.82;3.90;;;;;;;13.71;100.00;97449.47;4867153;29;20081;-62
2022/09/11 02:48:44;;;;;;;9.15;4.43;;;;;;;13.75;100.00;97453.28;4861968;29;20485;-63
2022/09/11 02:51:11;;;;;;;7.18;3.95;;;;;;;13.70;100.00;97450.53;4857518;29;20572;-62
2022/09/11 02:53:53;;;;;;;7.38;3.78;;;;;;;13.67;100.00;97442.94;4867138;29;20489;-63
2022/09/11 02:56:34;;;;;;;8.65;4.53;;;;;;;13.68;100.00;97450.84;4866944;29;20056;-62
2022/09/11 02:59:09;;;;;;;7.93;4.32;;;;;;;13.69;100.00;97451.63;4856112;29;20046;-62
2022/09/11 03:01:55;;;;;;;6.95;4.63;;;;;;;13.65;100.00;97457.59;4869309;29;20059;-62
2022/09/11 03:04:24;;;;;;;9.35;4.68;;;;;;;13.65;100.00;97444.00;4865894;29;20053;-62
2022/09/11 03:06:52;;;;;;;7.00;4.53;;;;;;;13.67;100.00;97438.28;4853075;29;20122;-63
2022/09/11 03:09:19;;;;;;;9.82;4.43;;;;;;;13.63;100.00;97446.19;4872259;29;20039;-62
2022/09/11 03:11:49;;;;;;;11.00;5.07;;;;;;;13.62;100.00;97447.28;4862168;29;20053;-62
2022/09/11 03:14:16;;;;;;;9.85;5.50;;;;;;;13.61;100.00;97448.38;4872790;29;20064;-62
2022/09/11 03:16:42;;;;;;;9.38;5.20;;;;;;;13.64;100.00;97447.81;4872659;29;20097;-62
2022/09/11 03:19:11;;;;;;;8.95;4.82;;;;;;;13.61;100.00;97451.09;4863986;29;20076;-62
2022/09/11 03:21:37;;;;;;;8.63;5.70;;;;;;;13.60;100.00;97449.44;4870358;29;20049;-61
2022/09/11 03:24:05;;;;;;;8.45;5.32;;;;;;;13.63;100.00;97445.38;4869612;29;20549;-63
2022/09/11 03:26:34;;;;;;;8.68;5.35;;;;;;;13.66;100.00;97453.00;4868346;29;20468;-62
2022/09/11 03:29:02;;;;;;;11.35;5.40;;;;;;;13.62;100.00;97458.16;4855544;29;20057;-62
2022/09/11 03:31:29;;;;;;;8.23;5.03;;;;;;;13.61;100.00;97456.53;4866482;29;20057;-62
2022/09/11 03:33:57;;;;;;;8.35;5.22;;;;;;;13.61;100.00;97456.53;4857186;29;20164;-62
2022/09/11 03:36:23;;;;;;;7.35;5.05;;;;;;;13.62;100.00;97455.44;4872046;29;20516;-63
2022/09/11 03:38:53;;;;;;;8.57;5.65;;;;;;;13.64;100.00;97450.53;4866466;29;20136;-63
2022/09/11 03:41:20;;;;;;;9.60;5.25;;;;;;;13.65;100.00;97456.81;4864735;29;20650;-62
2022/09/11 03:43:47;;;;;;;8.25;5.18;;;;;;;13.64;100.00;97460.63;4860269;29;20448;-63
2022/09/11 03:46:13;;;;;;;7.30;4.90;;;;;;;13.64;100.00;97460.63;4878494;29;20417;-62
2022/09/11 03:48:39;;;;;;;8.95;5.80;;;;;;;13.65;100.00;97465.78;4878115;29;20045;-62
2022/09/11 03:51:06;;;;;;;8.95;5.70;;;;;;;13.64;100.00;97471.50;4861598;29;20497;-62
2022/09/11 03:53:32;;;;;;;7.85;5.45;;;;;;;13.60;100.00;97471.22;4863168;29;20143;-62
2022/09/11 03:55:59;;;;;;;8.23;5.60;;;;;;;13.63;100.00;97467.13;4861646;29;20500;-61
2022/09/11 03:58:28;;;;;;;10.55;5.85;;;;;;;13.61;100.00;97463.88;4852872;29;20051;-62
2022/09/11 04:00:55;;;;;;;7.53;5.13;;;;;;;13.54;100.00;97455.97;4860405;29;20100;-63
2022/09/11 04:03:22;;;;;;;9.38;5.35;;;;;;;13.50;100.00;97454.88;4861627;29;20045;-63
2022/09/11 04:05:58;;;;;;;11.57;6.45;;;;;;;13.46;100.00;97465.47;4853655;29;20046;-62
2022/09/11 04:08:24;;;;;;;9.30;6.38;;;;;;;13.45;100.00;97457.56;4867946;29;20143;-61
2022/09/11 04:10:58;;;;;;;8.63;6.30;;;;;;;13.45;100.00;97447.47;4863106;29;20046;-62
2022/09/11 04:13:33;;;;;;;12.93;5.93;;;;;;;13.46;100.00;97440.97;4868112;29;20195;-62
2022/09/11 04:16:09;;;;;;;9.70;5.93;;;;;;;13.43;100.00;97457.81;4874532;29;20886;-63
2022/09/11 04:18:38;;;;;;;9.68;5.72;;;;;;;13.45;100.00;97460.28;4857165;29;20056;-61
2022/09/11 04:21:11;;;;;;;8.93;5.85;;;;;;;13.45;100.00;97460.28;4869733;29;20049;-62
2022/09/11 04:23:38;;;;;;;9.90;5.70;;;;;;;13.39;100.00;97457.53;4859869;29;20066;-62
2022/09/11 04:26:16;;;;;;;9.23;5.72;;;;;;;13.42;100.00;97458.09;4857332;29;20045;-63
2022/09/11 04:28:45;;;;;;;11.20;5.63;;;;;;;13.45;100.00;97465.72;4870545;29;20053;-62
2022/09/11 04:31:15;;;;;;;8.18;5.78;;;;;;;13.44;100.00;97467.63;4861429;29;20470;-62
2022/09/11 04:33:42;;;;;;;9.68;6.82;;;;;;;13.47;100.00;97471.69;4863121;29;20109;-62
2022/09/11 04:36:12;;;;;;;11.10;6.43;;;;;;;13.42;100.00;97466.25;4862679;29;20072;-62
2022/09/11 04:38:40;;;;;;;13.60;6.22;;;;;;;13.44;100.00;97469.50;4869293;29;20057;-63
2022/09/11 04:41:10;;;;;;;8.55;6.80;;;;;;;13.44;100.00;97475.78;4865329;29;20045;-63
2022/09/11 04:43:38;;;;;;;13.93;6.60;;;;;;;13.48;100.00;97479.63;4881947;29;20049;-62
2022/09/11 04:46:10;;;;;;;10.00;6.43;;;;;;;13.53;100.00;97487.00;4883152;29;20077;-62
2022/09/11 04:48:50;;;;;;;10.50;6.32;;;;;;;13.48;100.00;97490.50;4872948;29;20091;-62
2022/09/11 04:51:33;;;;;;;9.35;6.00;;;;;;;13.45;100.00;97498.34;4864155;29;20383;-62
2022/09/11 04:54:01;;;;;;;10.45;6.20;;;;;;;13.44;100.00;97497.53;4868531;29;20484;-63
2022/09/11 04:56:36;;;;;;;9.88;6.72;;;;;;;13.43;100.00;97498.63;4871410;29;20093;-61
2022/09/11 04:59:16;;;;;;;9.55;6.68;;;;;;;13.42;100.00;97507.88;4871298;29;20049;-62
2022/09/11 05:01:47;;;;;;;11.48;5.93;;;;;;;13.44;100.00;97513.03;4858682;29;20045;-62
2022/09/11 05:04:17;;;;;;;10.77;6.45;;;;;;;13.43;100.00;97512.22;4859308;29;20421;-63
2022/09/11 05:06:49;;;;;;;13.18;6.82;;;;;;;13.42;100.00;97512.50;4864831;29;20057;-62
2022/09/11 05:09:17;;;;;;;8.40;6.20;;;;;;;13.43;100.00;97522.28;4854912;29;20334;-62
2022/09/11 05:11:45;;;;;;;10.13;6.40;;;;;;;13.44;100.00;97518.47;4870420;29;20083;-61
2022/09/11 05:14:14;;;;;;;11.07;7.00;;;;;;;13.44;100.00;97519.28;4874490;29;20045;-61
2022/09/11 05:16:44;;;;;;;10.18;6.15;;;;;;;13.45;100.00;97522.84;4883338;29;20101;-62
2022/09/11 05:19:11;;;;;;;13.88;6.95;;;;;;;13.44;100.00;97530.16;4877471;29;20076;-61
2022/09/11 05:21:38;;;;;;;13.73;7.82;;;;;;;13.42;100.00;97532.34;4869666;29;20073;-61
2022/09/11 05:24:05;;;;;;;9.23;6.47;;;;;;;13.43;100.00;97527.72;4858628;29;20144;-63
2022/09/11 05:26:35;;;;;;;12.43;6.35;;;;;;;13.49;100.00;97527.50;4876375;29;20063;-62
2022/09/11 05:29:08;;;;;;;11.20;6.80;;;;;;;13.50;100.00;97534.56;4884673;29;20049;-62
2022/09/11 05:31:41;;;;;;;11.18;6.05;;;;;;;13.60;100.00;97531.06;4873424;29;20048;-62
2022/09/11 05:34:08;;;;;;;9.48;6.13;;;;;;;13.59;100.00;97534.88;4875237;29;20056;-62
2022/09/11 05:36:35;;;;;;;7.85;5.82;;;;;;;13.59;100.00;97537.59;4874958;29;20056;-62
2022/09/11 05:39:03;;;;;;;9.77;6.90;;;;;;;13.57;100.00;97544.38;4874368;29;20063;-62
2022/09/11 05:41:31;;;;;;;10.73;6.03;;;;;;;13.67;100.00;97543.59;4865591;29;20444;-63
2022/09/11 05:43:58;;;;;;;9.82;6.35;;;;;;;13.59;100.00;97548.47;4876189;29;20064;-61
2022/09/11 05:46:24;;;;;;;9.57;6.65;;;;;;;13.61;100.00;97542.78;4890230;29;20045;-62
2022/09/11 05:50:07;;;;;;;10.07;7.30;;;;;;;13.61;100.00;97542.78;5060518;28;20406;-62
2022/09/11 05:52:34;;;;;;;12.18;6.70;;;;;;;13.61;100.00;97553.66;5059723;28;20039;-62
2022/09/11 05:55:01;;;;;;;11.90;7.97;;;;;;;13.60;100.00;97552.03;5044404;28;20877;-62
2022/09/11 05:57:28;;;;;;;11.10;7.50;;;;;;;13.62;100.00;97542.50;5038214;28;20405;-62
2022/09/11 05:59:55;;;;;;;9.20;6.85;;;;;;;13.64;100.00;97553.94;5044171;28;20642;-63
2022/09/11 06:02:22;;;;;;;10.85;7.07;;;;;;;13.65;100.00;97562.91;5044135;28;20148;-62
2022/09/11 06:04:52;;;;;;;12.35;7.57;;;;;;;13.65;100.00;97568.34;5039073;28;20045;-63
2022/09/11 06:07:21;;;;;;;9.05;7.05;;;;;;;13.68;100.00;97559.66;5038781;28;20132;-62
2022/09/11 06:09:49;;;;;;;9.27;7.25;;;;;;;13.71;100.00;97567.28;5050242;28;20040;-63
2022/09/11 06:12:17;;;;;;;11.75;7.70;;;;;;;13.73;100.00;97576.00;5054202;28;20133;-62
2022/09/11 06:14:45;;;;;;;11.70;7.03;;;;;;;13.78;100.00;97575.19;5039437;28;20193;-62
2022/09/11 06:17:13;;;;;;;11.45;7.53;;;;;;;13.78;100.00;97586.06;5052265;28;20049;-63
2022/09/11 06:19:39;;;;;;;8.90;6.60;;;;;;;13.81;100.00;97598.34;5039723;28;20466;-63
2022/09/11 06:22:06;;;;;;;8.25;6.43;;;;;;;13.90;100.00;97597.53;5035582;28;20121;-63
2022/09/11 06:24:36;;;;;;;9.67;6.43;;;;;;;13.93;100.00;97593.47;5042087;28;20056;-63
2022/09/11 06:27:03;;;;;;;11.93;6.50;;;;;;;13.94;100.00;97597.84;5041143;28;20073;-63
2022/09/11 06:29:32;;;;;;;9.45;7.40;;;;;;;13.97;100.00;97600.00;5058501;28;20064;-63
2022/09/11 06:32:00;;;;;;;9.70;7.10;;;;;;;14.05;100.00;97604.91;5041138;28;20562;-63
2022/09/11 06:34:29;;;;;;;9.05;6.30;;;;;;;14.03;100.00;97598.94;5055761;28;20241;-63
2022/09/11 06:36:57;;;;;;;11.55;6.90;;;;;;;14.03;100.00;97607.09;5060915;28;20052;-63
2022/09/11 06:39:25;;;;;;;7.10;6.07;;;;;;;14.12;100.00;97612.81;5058783;28;20079;-63
2022/09/11 06:41:54;;;;;;;9.20;5.90;;;;;;;14.16;100.00;97608.47;5046982;28;20515;-63
2022/09/11 06:44:26;;;;;;;9.90;7.72;;;;;;;14.17;100.00;97620.19;5056084;28;20147;-62
2022/09/11 06:46:58;;;;;;;7.22;6.05;;;;;;;14.16;100.00;97621.28;5040437;28;20045;-63
2022/09/11 06:49:25;;;;;;;9.85;6.68;;;;;;;14.18;100.00;97622.66;5048388;28;20061;-62
2022/09/11 06:52:10;;;;;;;9.75;6.45;;;;;;;14.20;100.00;97622.41;5041852;28;20512;-62
2022/09/11 06:54:39;;;;;;;9.40;6.68;;;;;;;14.28;100.00;97613.69;5041082;28;20118;-63
2022/09/11 06:57:10;;;;;;;11.20;6.32;;;;;;;14.37;100.00;97616.69;5042314;28;20049;-63
2022/09/11 06:59:37;;;;;;;9.27;5.95;;;;;;;14.37;100.00;97613.97;5057257;28;20136;-62
2022/09/11 07:02:03;;;;;;;9.48;6.82;;;;;;;14.38;100.00;97614.78;5027804;28;20128;-62
2022/09/11 07:04:30;;;;;;;8.25;6.32;;;;;;;14.44;100.00;97619.97;5033401;28;20493;-62
2022/09/11 07:06:57;;;;;;;9.27;6.00;;;;;;;14.54;100.00;97621.06;5037415;28;20100;-62
2022/09/11 07:09:24;;;;;;;10.60;6.65;;;;;;;14.46;100.00;97621.59;5040143;28;20128;-62
2022/09/11 07:11:54;;;;;;;8.93;6.25;;;;;;;14.44;100.00;97619.16;5043186;28;20072;-62
2022/09/11 07:14:22;;;;;;;10.65;6.10;;;;;;;14.48;100.00;97617.50;5032959;28;20503;-64
2022/09/11 07:16:53;;;;;;;8.75;6.72;;;;;;;14.53;100.00;97622.16;5047398;28;20131;-62
2022/09/11 07:19:23;;;;;;;11.00;6.93;;;;;;;14.63;100.00;97621.34;5040618;28;20041;-63
2022/09/11 07:21:50;;;;;;;8.85;6.22;;;;;;;14.60;100.00;97627.34;5030905;28;20063;-63
2022/09/11 07:24:17;;;;;;;8.45;6.80;;;;;;;14.56;100.00;97624.34;5030734;28;20065;-62
2022/09/11 07:26:44;;;;;;;8.63;6.53;;;;;;;14.62;100.00;97634.16;5012351;28;20121;-63
2022/09/11 07:29:26;;;;;;;11.68;7.10;;;;;;;14.60;100.00;97639.06;5020020;28;20399;-63
2022/09/11 07:31:54;;;;;;;10.32;6.40;;;;;;;14.58;100.00;97638.50;5030983;28;20053;-63
2022/09/11 07:34:21;;;;;;;9.60;6.65;;;;;;;14.75;100.00;97634.69;5026665;28;20045;-64
2022/09/11 07:36:50;;;;;;;9.32;6.55;;;;;;;14.73;99.11;97636.84;5030137;28;20115;-62
2022/09/11 07:39:17;;;;;;;12.65;6.57;;;;;;;14.70;100.00;97632.78;5024443;28;20148;-63
2022/09/11 07:41:49;;;;;;;11.10;6.85;;;;;;;14.76;99.64;97631.72;5035599;28;20161;-63
2022/09/11 07:44:22;;;;;;;10.13;5.88;;;;;;;14.92;99.21;97638.00;5028604;28;20053;-62
2022/09/11 07:46:50;;;;;;;11.32;6.57;;;;;;;15.04;98.07;97643.16;5024359;28;20576;-63
2022/09/11 07:49:16;;;;;;;10.68;5.93;;;;;;;15.15;97.06;97648.59;5027043;28;20060;-63
2022/09/11 07:51:43;;;;;;;9.43;6.75;;;;;;;15.11;97.35;97651.03;5033575;28;20115;-63
2022/09/11 07:54:13;;;;;;;9.20;5.97;;;;;;;15.21;97.52;97651.03;5024413;28;20509;-63
2022/09/11 07:56:40;;;;;;;13.63;7.20;;;;;;;15.23;97.02;97648.03;5029853;28;20268;-63
2022/09/11 07:59:09;;;;;;;7.80;5.78;;;;;;;15.41;96.01;97654.81;5038853;28;20049;-63
2022/09/11 08:01:43;;;;;;;8.48;5.90;;;;;;;15.59;94.78;97655.31;5031576;28;20053;-63
2022/09/11 08:04:13;;;;;;;9.55;6.10;;;;;;;15.80;93.35;97663.41;5024595;28;20543;-64
2022/09/11 08:06:39;;;;;;;8.38;5.88;;;;;;;15.74;91.40;97659.91;5025654;28;20512;-63
2022/09/11 08:09:14;;;;;;;9.85;5.72;;;;;;;15.74;93.20;97659.91;5026675;28;20037;-63
2022/09/11 08:11:47;;;;;;;9.20;6.65;;;;;;;15.74;92.51;97655.25;5026460;28;20350;-63
2022/09/11 08:14:16;;;;;;;8.13;5.47;;;;;;;15.85;92.63;97656.03;5032642;28;20047;-63
2022/09/11 08:16:45;;;;;;;8.35;5.53;;;;;;;15.89;93.05;97659.03;5035433;28;20049;-63
2022/09/11 08:19:17;;;;;;;10.00;6.22;;;;;;;16.02;91.61;97659.53;5023383;28;20052;-63
2022/09/11 08:21:47;;;;;;;10.75;5.65;;;;;;;16.14;90.60;97667.41;5023925;28;20127;-63
2022/09/11 08:24:16;;;;;;;7.43;5.55;;;;;;;16.27;88.88;97661.31;5030369;28;20045;-63
2022/09/11 08:26:44;;;;;;;8.23;6.05;;;;;;;16.35;87.68;97670.84;5024105;28;20046;-63
2022/09/11 08:29:15;;;;;;;9.10;5.97;;;;;;;16.40;87.28;97673.53;5034664;28;20136;-64
2022/09/11 08:31:41;;;;;;;9.38;6.03;;;;;;;16.59;85.83;97683.81;5024089;28;20103;-63
2022/09/11 08:34:09;;;;;;;9.73;6.13;;;;;;;16.43;86.66;97675.69;5042157;28;20060;-64
2022/09/11 08:36:37;;;;;;;8.98;6.10;;;;;;;16.31;88.30;97677.97;5041386;28;20429;-63
2022/09/11 08:39:05;;;;;;;8.93;6.18;;;;;;;16.28;89.12;97684.00;5024381;28;20049;-63
2022/09/11 08:41:45;;;;;;;;;;;;;;;16.34;86.03;97682.88;5023713;28;20467;-63
2022/09/11 08:44:16;;;;;;;8.68;6.00;;;;;;;16.40;87.35;97683.66;5030794;28;19945;-63
2022/09/11 08:46:47;;;;;;;7.78;5.93;;;;;;;16.36;86.85;97681.47;5024236;28;20049;-63
2022/09/11 08:49:23;;;;;;;7.45;4.97;;;;;;;16.40;87.48;97687.19;5028775;28;20042;-63
2022/09/11 08:51:54;;;;;;;7.95;6.32;;;;;;;16.39;86.86;97685.56;5012779;28;20056;-63
2022/09/11 08:54:28;;;;;;;9.10;6.57;;;;;;;16.40;88.06;97691.84;5026396;28;20163;-63
2022/09/11 08:57:39;;;;;;;8.20;6.18;;;;;;;16.41;86.18;97688.00;5023057;28;20332;-63
2022/09/11 09:00:20;;;;;;;13.63;7.15;;;;;;;16.01;86.61;97691.50;5011200;28;20052;-63
2022/09/11 09:03:12;;;;;;;9.68;6.57;;;;;;;16.31;86.43;97686.16;5036970;28;20045;-63
2022/09/11 09:06:11;;;;;;;10.88;6.82;;;;;;;16.66;86.19;97684.28;5028726;28;20049;-63
2022/09/11 09:08:57;;;;;;;10.55;7.22;;;;;;;16.84;84.94;97685.53;5026350;28;20045;-63
2022/09/11 09:11:35;;;;;;;10.65;6.55;;;;;;;17.05;83.09;97690.03;5027089;28;20419;-64
2022/09/11 09:14:17;;;;;;;9.55;6.80;;;;;;;16.88;82.21;97688.53;5023188;28;20045;-62
2022/09/11 09:16:54;;;;;;;12.40;6.85;;;;;;;16.63;82.93;97693.06;5027125;28;20067;-63
2022/09/11 09:19:39;;;;;;;8.70;6.13;;;;;;;16.87;82.72;97695.06;5022385;28;20045;-63
2022/09/11 09:22:16;;;;;;;10.73;6.88;;;;;;;16.63;81.94;97693.06;5030040;28;20110;-62
2022/09/11 09:24:52;;;;;;;12.82;7.78;;;;;;;16.74;80.46;97697.34;5010959;28;20128;-62
2022/09/11 09:27:29;;;;;;;9.73;6.40;;;;;;;16.98;83.00;97698.53;5034029;28;20465;-63
2022/09/11 09:30:00;;;;;;;12.70;6.35;;;;;;;17.14;81.83;97702.81;5022628;28;20120;-62
2022/09/11 09:32:31;;;;;;;9.05;6.40;;;;;;;17.13;80.92;97695.72;5028551;28;20056;-63
2022/09/11 09:35:03;;;;;;;11.48;6.72;;;;;;;17.01;80.94;97687.88;5027589;28;20052;-63
2022/09/11 09:37:29;;;;;;;9.18;6.95;;;;;;;17.03;80.95;97690.31;5017977;28;20050;-63
2022/09/11 09:40:01;;;;;;;7.85;6.40;;;;;;;16.93;81.33;97691.22;5026753;28;20057;-63
2022/09/11 09:42:56;;;;;;;10.13;7.22;;;;;;;17.19;81.19;97692.94;5019692;28;20064;-62
2022/09/11 09:45:44;;;;;;;9.38;7.03;;;;;;;17.45;82.72;97688.03;5026451;28;20563;-63
2022/09/11 09:48:11;;;;;;;8.57;6.28;;;;;;;17.62;76.18;97686.78;5036829;28;20586;-63
2022/09/11 09:50:40;;;;;;;8.82;6.22;;;;;;;17.85;77.36;97687.06;5022636;28;20037;-63
2022/09/11 09:53:40;;;;;;;8.18;5.97;;;;;;;17.85;75.25;97684.31;5021362;28;20516;-63
2022/09/11 09:56:11;;;;;;;9.85;6.47;;;;;;;18.13;75.19;97685.38;5030999;28;20715;-63
2022/09/11 09:58:40;;;;;;;;;;;;;;;18.25;71.65;97682.22;5024363;28;20072;-62
2022/09/11 10:01:45;;;;;;;575.92;92.95;;;;;;;18.55;74.04;97684.81;5035652;28;20288;-62
2022/09/11 10:04:21;;;;;;;1461.25;228.02;;;;;;;18.57;71.54;97686.13;5024226;28;20603;-62
2022/09/11 10:06:51;;;;;;;65.57;12.00;;;;;;;18.75;73.43;97689.16;5035026;28;20057;-63
2022/09/11 10:09:20;;;;;;;193.02;24.27;;;;;;;18.80;73.30;97691.81;5023123;28;20484;-63
2022/09/11 10:11:51;;;;;;;96.28;16.08;;;;;;;18.68;74.22;97691.44;5027439;28;20037;-63
2022/09/11 10:14:22;;;;;;;30.85;8.63;;;;;;;18.97;74.48;97690.47;5034383;28;20497;-63
2022/09/11 10:17:22;;;;;;;486.27;75.93;;;;;;;19.09;73.50;97685.34;5024871;28;20477;-63
2022/09/11 10:19:52;;;;;;;93.38;16.70;;;;;;;19.00;72.75;97689.03;5023168;28;20037;-63
2022/09/11 10:22:21;;;;;;;6.68;5.32;;;;;;;18.79;72.02;97681.16;5022642;28;20055;-63
2022/09/11 10:25:11;;;;;;;18.33;6.97;;;;;;;17.89;74.97;97679.88;5021366;28;20045;-62
2022/09/11 10:27:47;;;;;;;25.45;9.00;;;;;;;18.03;73.01;97680.78;5020211;28;20045;-63
2022/09/11 10:30:35;;;;;;;29.08;7.60;;;;;;;18.11;74.54;97681.28;5023411;28;20048;-63
2022/09/11 10:33:06;;;;;;;11.38;6.07;;;;;;;18.07;72.18;97681.03;5018682;28;20770;-62
2022/09/11 10:35:34;;;;;;;8.35;6.60;;;;;;;17.87;71.73;97680.19;5029257;28;20053;-63
2022/09/11 10:38:17;;;;;;;7.15;5.55;;;;;;;17.97;74.02;97673.75;5033423;28;20521;-62
2022/09/11 10:41:12;;;;;;;7.85;5.45;;;;;;;18.20;74.18;97674.03;5027088;28;20211;-62
2022/09/11 10:43:51;;;;;;;7.50;4.93;;;;;;;18.46;73.49;97669.03;5035047;28;20132;-63
2022/09/11 10:46:18;;;;;;;10.43;5.50;;;;;;;18.59;71.35;97674.88;5034496;28;20049;-63
2022/09/11 10:48:53;;;;;;;7.18;5.18;;;;;;;18.85;69.78;97678.03;5039511;28;20052;-63
2022/09/11 10:51:22;;;;;;;8.35;4.72;;;;;;;19.14;67.45;97662.50;5026432;28;20132;-62
2022/09/11 10:54:20;;;;;;;7.82;5.00;;;;;;;19.09;66.86;97660.66;5029141;28;20049;-63
2022/09/11 10:56:57;;;;;;;7.93;4.90;;;;;;;19.17;65.93;97672.06;5024806;28;20408;-63
2022/09/11 10:59:41;;;;;;;6.93;4.00;;;;;;;19.32;66.18;97671.78;5028586;28;20037;-63
2022/09/11 11:02:32;;;;;;;6.10;4.15;;;;;;;19.27;65.95;97666.38;5035318;28;20042;-62
2022/09/11 11:05:07;;;;;;;6.43;4.07;;;;;;;19.49;65.29;97662.97;5033757;28;20049;-62
2022/09/11 11:08:10;;;;;;;5.22;3.90;;;;;;;19.51;66.21;97668.16;5030323;28;20397;-63
2022/09/11 11:10:47;;;;;;;8.45;4.72;;;;;;;19.56;65.20;97667.22;5015198;28;20071;-63
2022/09/11 11:13:38;;;;;;;7.43;3.80;;;;;;;19.32;65.07;97665.47;5029124;28;20276;-63
2022/09/11 11:16:34;;;;;;;5.63;3.80;;;;;;;19.61;62.56;97665.19;5032503;28;20120;-63
2022/09/11 11:19:22;;;;;;;5.65;3.95;;;;;;;19.82;62.94;97652.97;5031902;28;20048;-63
2022/09/11 11:22:27;;;;;;;5.13;3.08;;;;;;;20.11;59.36;97662.84;5031527;28;20047;-64
2022/09/11 11:25:21;;;;;;;5.40;4.05;;;;;;;20.04;60.46;97657.78;5019228;28;20057;-63
2022/09/11 11:28:19;;;;;;;5.25;3.55;;;;;;;20.13;60.21;97661.44;5026394;28;20045;-63
2022/09/11 11:31:10;;;;;;;6.63;4.07;;;;;;;19.95;60.90;97659.59;5018563;28;20582;-62
2022/09/11 11:33:44;;;;;;;5.57;3.63;;;;;;;20.09;60.27;97665.13;5031756;28;20232;-62
2022/09/11 11:36:39;;;;;;;4.78;3.75;;;;;;;20.23;59.48;97663.16;5034652;28;20037;-63
2022/09/11 11:39:24;;;;;;;5.45;3.80;;;;;;;20.06;59.90;97663.81;5012353;28;20060;-63
2022/09/11 11:42:20;;;;;;;4.35;3.38;;;;;;;20.16;59.58;97672.94;5038112;28;20060;-63
2022/09/11 11:45:19;;;;;;;6.25;3.90;;;;;;;19.88;58.56;97666.34;5025113;28;20068;-62
2022/09/11 11:47:47;;;;;;;5.85;2.90;;;;;;;20.44;57.52;97665.44;5019357;28;20069;-62
2022/09/11 11:50:23;;;;;;;5.35;3.00;;;;;;;20.54;58.24;97670.69;5015111;28;20428;-63
2022/09/11 11:53:11;;;;;;;6.70;4.40;;;;;;;20.02;59.15;97665.53;5025044;28;20047;-62
2022/09/11 11:55:48;;;;;;;6.93;4.07;;;;;;;19.81;60.50;97670.59;5024910;28;20053;-63
2022/09/11 11:58:23;;;;;;;12.43;4.78;;;;;;;19.48;63.65;97668.75;5038530;28;20452;-62
2022/09/11 12:00:57;;;;;;;5.95;4.15;;;;;;;19.62;62.64;97671.50;5024240;28;20048;-62